sensor_id;sensor_type;location;lat;lon;timestamp;temperature;humidity
23744;DHT22;12052;53.478;10.182;2024-02-21T00:01:45;8.70;99.90
23744;DHT22;12052;53.478;10.182;2024-02-21T00:04:11;8.70;99.90
23744;DHT22;12052;53.478;10.182;2024-02-21T00:06:36;8.70;99.90
23744;DHT22;12052;53.478;10.182;2024-02-21T00:09:02;8.70;99.90
23744;DHT22;12052;53.478;10.182;2024-02-21T00:11:28;8.70;99.90
23744;DHT22;12052;53.478;10.182;2024-02-21T00:13:53;8.70;99.90
23744;DHT22;12052;53.478;10.182;2024-02-21T00:16:19;8.70;99.90
23744;DHT22;12052;53.478;10.182;2024-02-21T00:18:45;8.70;99.90
23744;DHT22;12052;53.478;10.182;2024-02-21T00:21:10;8.60;99.90
23744;DHT22;12052;53.478;10.182;2024-02-21T00:23:45;8.70;99.90
23744;DHT22;12052;53.478;10.182;2024-02-21T00:26:15;8.60;99.90
23744;DHT22;12052;53.478;10.182;2024-02-21T00:28:40;8.60;99.90
23744;DHT22;12052;53.478;10.182;2024-02-21T00:31:06;8.60;99.90
23744;DHT22;12052;53.478;10.182;2024-02-21T00:33:31;8.50;99.90
23744;DHT22;12052;53.478;10.182;2024-02-21T00:35:57;8.60;99.90
23744;DHT22;12052;53.478;10.182;2024-02-21T00:38:23;8.50;99.90
23744;DHT22;12052;53.478;10.182;2024-02-21T00:40:48;8.50;99.90
23744;DHT22;12052;53.478;10.182;2024-02-21T00:43:14;8.50;99.90
23744;DHT22;12052;53.478;10.182;2024-02-21T00:45:39;8.50;99.90
23744;DHT22;12052;53.478;10.182;2024-02-21T00:48:05;8.50;99.90
23744;DHT22;12052;53.478;10.182;2024-02-21T00:50:31;8.50;99.90
23744;DHT22;12052;53.478;10.182;2024-02-21T00:52:56;8.50;99.90
23744;DHT22;12052;53.478;10.182;2024-02-21T00:55:22;8.50;99.90
23744;DHT22;12052;53.478;10.182;2024-02-21T00:57:47;8.60;99.90
23744;DHT22;12052;53.478;10.182;2024-02-21T01:00:13;8.50;99.90
23744;DHT22;12052;53.478;10.182;2024-02-21T01:02:39;8.60;99.90
23744;DHT22;12052;53.478;10.182;2024-02-21T01:05:05;8.50;99.90
23744;DHT22;12052;53.478;10.182;2024-02-21T01:07:31;8.50;99.90
23744;DHT22;12052;53.478;10.182;2024-02-21T01:09:56;8.50;99.90
23744;DHT22;12052;53.478;10.182;2024-02-21T01:12:22;8.60;99.90
23744;DHT22;12052;53.478;10.182;2024-02-21T01:14:47;8.60;99.90
23744;DHT22;12052;53.478;10.182;2024-02-21T01:17:14;8.60;99.90
23744;DHT22;12052;53.478;10.182;2024-02-21T01:19:40;8.60;99.90
23744;DHT22;12052;53.478;10.182;2024-02-21T01:22:06;8.60;99.90
23744;DHT22;12052;53.478;10.182;2024-02-21T01:24:31;8.60;99.90
23744;DHT22;12052;53.478;10.182;2024-02-21T01:26:57;8.60;99.90
23744;DHT22;12052;53.478;10.182;2024-02-21T01:29:23;8.60;99.90
23744;DHT22;12052;53.478;10.182;2024-02-21T01:31:48;8.60;99.90
23744;DHT22;12052;53.478;10.182;2024-02-21T01:34:14;8.60;99.90
23744;DHT22;12052;53.478;10.182;2024-02-21T01:36:39;8.60;99.90
23744;DHT22;12052;53.478;10.182;2024-02-21T01:39:06;8.60;99.90
23744;DHT22;12052;53.478;10.182;2024-02-21T01:41:32;8.60;99.90
23744;DHT22;12052;53.478;10.182;2024-02-21T01:43:58;8.60;99.90
23744;DHT22;12052;53.478;10.182;2024-02-21T01:46:24;8.60;99.90
23744;DHT22;12052;53.478;10.182;2024-02-21T01:48:57;8.60;99.90
23744;DHT22;12052;53.478;10.182;2024-02-21T01:51:26;8.60;99.90
23744;DHT22;12052;53.478;10.182;2024-02-21T01:53:53;8.60;99.90
23744;DHT22;12052;53.478;10.182;2024-02-21T01:56:20;8.60;99.90
23744;DHT22;12052;53.478;10.182;2024-02-21T01:58:46;8.60;99.90
23744;DHT22;12052;53.478;10.182;2024-02-21T02:01:12;8.60;99.90
23744;DHT22;12052;53.478;10.182;2024-02-21T02:03:38;8.60;99.90
23744;DHT22;12052;53.478;10.182;2024-02-21T02:06:05;8.60;99.90
23744;DHT22;12052;53.478;10.182;2024-02-21T02:08:31;8.50;99.90
23744;DHT22;12052;53.478;10.182;2024-02-21T02:10:57;8.50;99.90
23744;DHT22;12052;53.478;10.182;2024-02-21T02:13:23;8.50;99.90
23744;DHT22;12052;53.478;10.182;2024-02-21T02:15:49;8.40;99.90
23744;DHT22;12052;53.478;10.182;2024-02-21T02:18:16;8.50;99.90
23744;DHT22;12052;53.478;10.182;2024-02-21T02:20:42;8.40;99.90
23744;DHT22;12052;53.478;10.182;2024-02-21T02:23:21;8.40;99.90
23744;DHT22;12052;53.478;10.182;2024-02-21T02:25:47;8.40;99.90
23744;DHT22;12052;53.478;10.182;2024-02-21T02:28:14;8.40;99.90
23744;DHT22;12052;53.478;10.182;2024-02-21T02:30:40;8.40;99.90
23744;DHT22;12052;53.478;10.182;2024-02-21T02:33:06;8.40;99.90
23744;DHT22;12052;53.478;10.182;2024-02-21T02:35:32;8.40;99.90
23744;DHT22;12052;53.478;10.182;2024-02-21T02:37:58;8.40;99.90
23744;DHT22;12052;53.478;10.182;2024-02-21T02:40:24;8.40;99.90
23744;DHT22;12052;53.478;10.182;2024-02-21T02:42:50;8.40;99.90
23744;DHT22;12052;53.478;10.182;2024-02-21T02:45:17;8.40;99.90
23744;DHT22;12052;53.478;10.182;2024-02-21T02:47:44;8.40;99.90
23744;DHT22;12052;53.478;10.182;2024-02-21T02:50:11;8.40;99.90
23744;DHT22;12052;53.478;10.182;2024-02-21T02:52:37;8.40;99.90
23744;DHT22;12052;53.478;10.182;2024-02-21T02:55:03;8.40;99.90
23744;DHT22;12052;53.478;10.182;2024-02-21T02:57:30;8.40;99.90
23744;DHT22;12052;53.478;10.182;2024-02-21T02:59:55;8.40;99.90
23744;DHT22;12052;53.478;10.182;2024-02-21T03:02:21;8.50;99.90
23744;DHT22;12052;53.478;10.182;2024-02-21T03:04:46;8.50;99.90
23744;DHT22;12052;53.478;10.182;2024-02-21T03:07:13;8.50;99.90
23744;DHT22;12052;53.478;10.182;2024-02-21T03:09:39;8.50;99.90
23744;DHT22;12052;53.478;10.182;2024-02-21T03:12:06;8.50;99.90
23744;DHT22;12052;53.478;10.182;2024-02-21T03:14:32;8.60;99.90
23744;DHT22;12052;53.478;10.182;2024-02-21T03:16:58;8.60;99.90
23744;DHT22;12052;53.478;10.182;2024-02-21T03:19:24;8.60;99.90
23744;DHT22;12052;53.478;10.182;2024-02-21T03:21:50;8.60;99.90
23744;DHT22;12052;53.478;10.182;2024-02-21T03:24:16;8.70;99.90
23744;DHT22;12052;53.478;10.182;2024-02-21T03:26:42;8.60;99.90
23744;DHT22;12052;53.478;10.182;2024-02-21T03:29:08;8.70;99.90
23744;DHT22;12052;53.478;10.182;2024-02-21T03:31:37;8.70;99.90
23744;DHT22;12052;53.478;10.182;2024-02-21T03:34:02;8.70;99.90
23744;DHT22;12052;53.478;10.182;2024-02-21T03:36:28;8.70;99.90
23744;DHT22;12052;53.478;10.182;2024-02-21T03:38:54;8.70;99.90
23744;DHT22;12052;53.478;10.182;2024-02-21T03:41:20;8.70;99.90
23744;DHT22;12052;53.478;10.182;2024-02-21T03:43:46;8.80;99.90
23744;DHT22;12052;53.478;10.182;2024-02-21T03:46:12;8.80;99.90
23744;DHT22;12052;53.478;10.182;2024-02-21T03:48:37;8.80;99.90
23744;DHT22;12052;53.478;10.182;2024-02-21T03:51:03;8.80;99.90
23744;DHT22;12052;53.478;10.182;2024-02-21T03:53:29;8.80;99.90
23744;DHT22;12052;53.478;10.182;2024-02-21T03:55:55;8.80;99.90
23744;DHT22;12052;53.478;10.182;2024-02-21T03:58:22;8.90;99.90
23744;DHT22;12052;53.478;10.182;2024-02-21T04:00:47;8.80;99.90
23744;DHT22;12052;53.478;10.182;2024-02-21T04:03:13;8.90;99.90
23744;DHT22;12052;53.478;10.182;2024-02-21T04:05:39;8.90;99.90
23744;DHT22;12052;53.478;10.182;2024-02-21T04:08:05;8.90;99.90
23744;DHT22;12052;53.478;10.182;2024-02-21T04:10:31;8.90;99.90
23744;DHT22;12052;53.478;10.182;2024-02-21T04:12:56;8.90;99.90
23744;DHT22;12052;53.478;10.182;2024-02-21T04:15:22;8.90;99.90
23744;DHT22;12052;53.478;10.182;2024-02-21T04:17:47;8.90;99.90
23744;DHT22;12052;53.478;10.182;2024-02-21T04:20:15;8.80;99.90
23744;DHT22;12052;53.478;10.182;2024-02-21T04:22:43;8.80;99.90
23744;DHT22;12052;53.478;10.182;2024-02-21T04:25:10;8.80;99.90
23744;DHT22;12052;53.478;10.182;2024-02-21T04:27:36;8.70;99.90
23744;DHT22;12052;53.478;10.182;2024-02-21T04:30:02;8.70;99.90
23744;DHT22;12052;53.478;10.182;2024-02-21T04:32:28;8.60;99.90
23744;DHT22;12052;53.478;10.182;2024-02-21T04:34:54;8.60;99.90
23744;DHT22;12052;53.478;10.182;2024-02-21T04:37:20;8.60;99.90
23744;DHT22;12052;53.478;10.182;2024-02-21T04:39:46;8.60;99.90
23744;DHT22;12052;53.478;10.182;2024-02-21T04:42:11;8.60;99.90
23744;DHT22;12052;53.478;10.182;2024-02-21T04:44:37;8.50;99.90
23744;DHT22;12052;53.478;10.182;2024-02-21T04:47:03;8.50;99.90
23744;DHT22;12052;53.478;10.182;2024-02-21T04:49:29;8.50;99.90
23744;DHT22;12052;53.478;10.182;2024-02-21T04:51:55;8.50;99.90
23744;DHT22;12052;53.478;10.182;2024-02-21T04:54:21;8.50;99.90
23744;DHT22;12052;53.478;10.182;2024-02-21T04:56:46;8.50;99.90
23744;DHT22;12052;53.478;10.182;2024-02-21T04:59:12;8.50;99.90
23744;DHT22;12052;53.478;10.182;2024-02-21T05:01:37;8.40;99.90
23744;DHT22;12052;53.478;10.182;2024-02-21T05:04:03;8.40;99.90
23744;DHT22;12052;53.478;10.182;2024-02-21T05:06:28;8.40;99.90
23744;DHT22;12052;53.478;10.182;2024-02-21T05:08:54;8.40;99.90
23744;DHT22;12052;53.478;10.182;2024-02-21T05:11:21;8.40;99.90
23744;DHT22;12052;53.478;10.182;2024-02-21T05:13:47;8.30;99.90
23744;DHT22;12052;53.478;10.182;2024-02-21T05:16:13;8.30;99.90
23744;DHT22;12052;53.478;10.182;2024-02-21T05:18:39;8.30;99.90
23744;DHT22;12052;53.478;10.182;2024-02-21T05:21:05;8.30;99.90
23744;DHT22;12052;53.478;10.182;2024-02-21T05:23:31;8.30;99.90
23744;DHT22;12052;53.478;10.182;2024-02-21T05:25:56;8.30;99.90
23744;DHT22;12052;53.478;10.182;2024-02-21T05:28:22;8.30;99.90
23744;DHT22;12052;53.478;10.182;2024-02-21T05:30:47;8.30;99.90
23744;DHT22;12052;53.478;10.182;2024-02-21T05:33:13;8.30;99.90
23744;DHT22;12052;53.478;10.182;2024-02-21T05:35:46;8.30;99.90
23744;DHT22;12052;53.478;10.182;2024-02-21T05:38:12;8.30;99.90
23744;DHT22;12052;53.478;10.182;2024-02-21T05:40:38;8.30;99.90
23744;DHT22;12052;53.478;10.182;2024-02-21T05:43:03;8.30;99.90
23744;DHT22;12052;53.478;10.182;2024-02-21T05:45:29;8.30;99.90
23744;DHT22;12052;53.478;10.182;2024-02-21T05:47:55;8.30;99.90
23744;DHT22;12052;53.478;10.182;2024-02-21T05:50:22;8.30;99.90
23744;DHT22;12052;53.478;10.182;2024-02-21T05:52:51;8.30;99.90
23744;DHT22;12052;53.478;10.182;2024-02-21T05:55:18;8.30;99.90
23744;DHT22;12052;53.478;10.182;2024-02-21T05:57:43;8.30;99.90
23744;DHT22;12052;53.478;10.182;2024-02-21T06:00:09;8.30;99.90
23744;DHT22;12052;53.478;10.182;2024-02-21T06:02:35;8.30;99.90
23744;DHT22;12052;53.478;10.182;2024-02-21T06:05:00;8.30;99.90
23744;DHT22;12052;53.478;10.182;2024-02-21T06:07:26;8.30;99.90
23744;DHT22;12052;53.478;10.182;2024-02-21T06:09:52;8.30;99.90
23744;DHT22;12052;53.478;10.182;2024-02-21T06:12:17;8.30;99.90
23744;DHT22;12052;53.478;10.182;2024-02-21T06:14:43;8.30;99.90
23744;DHT22;12052;53.478;10.182;2024-02-21T06:17:08;8.30;99.90
23744;DHT22;12052;53.478;10.182;2024-02-21T06:19:34;8.30;99.90
23744;DHT22;12052;53.478;10.182;2024-02-21T06:22:00;8.30;99.90
23744;DHT22;12052;53.478;10.182;2024-02-21T06:24:25;8.30;99.90
23744;DHT22;12052;53.478;10.182;2024-02-21T06:26:51;8.30;99.90
23744;DHT22;12052;53.478;10.182;2024-02-21T06:29:16;8.30;99.90
23744;DHT22;12052;53.478;10.182;2024-02-21T06:31:42;8.40;99.90
23744;DHT22;12052;53.478;10.182;2024-02-21T06:34:08;8.40;99.90
23744;DHT22;12052;53.478;10.182;2024-02-21T06:36:33;8.40;99.90
23744;DHT22;12052;53.478;10.182;2024-02-21T06:38:59;8.30;99.90
23744;DHT22;12052;53.478;10.182;2024-02-21T06:41:24;8.30;99.90
23744;DHT22;12052;53.478;10.182;2024-02-21T06:43:51;8.30;99.90
23744;DHT22;12052;53.478;10.182;2024-02-21T06:46:24;8.40;99.90
23744;DHT22;12052;53.478;10.182;2024-02-21T06:48:49;8.30;99.90
23744;DHT22;12052;53.478;10.182;2024-02-21T06:51:15;8.40;99.90
23744;DHT22;12052;53.478;10.182;2024-02-21T06:53:41;8.40;99.90
23744;DHT22;12052;53.478;10.182;2024-02-21T06:56:08;8.40;99.90
23744;DHT22;12052;53.478;10.182;2024-02-21T06:58:33;8.40;99.90
23744;DHT22;12052;53.478;10.182;2024-02-21T07:00:59;8.40;99.90
23744;DHT22;12052;53.478;10.182;2024-02-21T07:03:24;8.30;99.90
23744;DHT22;12052;53.478;10.182;2024-02-21T07:05:50;8.40;99.90
23744;DHT22;12052;53.478;10.182;2024-02-21T07:08:15;8.40;99.90
23744;DHT22;12052;53.478;10.182;2024-02-21T07:10:41;8.40;99.90
23744;DHT22;12052;53.478;10.182;2024-02-21T07:13:07;8.40;99.90
23744;DHT22;12052;53.478;10.182;2024-02-21T07:15:32;8.50;99.90
23744;DHT22;12052;53.478;10.182;2024-02-21T07:17:58;8.40;99.90
23744;DHT22;12052;53.478;10.182;2024-02-21T07:20:24;8.40;99.90
23744;DHT22;12052;53.478;10.182;2024-02-21T07:22:50;8.50;99.90
23744;DHT22;12052;53.478;10.182;2024-02-21T07:25:15;8.50;99.90
23744;DHT22;12052;53.478;10.182;2024-02-21T07:27:43;8.50;99.90
23744;DHT22;12052;53.478;10.182;2024-02-21T07:30:09;8.50;99.90
23744;DHT22;12052;53.478;10.182;2024-02-21T07:32:35;8.50;99.90
23744;DHT22;12052;53.478;10.182;2024-02-21T07:35:00;8.50;99.90
23744;DHT22;12052;53.478;10.182;2024-02-21T07:37:26;8.60;99.90
23744;DHT22;12052;53.478;10.182;2024-02-21T07:39:51;8.60;99.90
23744;DHT22;12052;53.478;10.182;2024-02-21T07:42:17;8.60;99.90
23744;DHT22;12052;53.478;10.182;2024-02-21T07:44:43;8.60;99.90
23744;DHT22;12052;53.478;10.182;2024-02-21T07:47:08;8.60;99.90
23744;DHT22;12052;53.478;10.182;2024-02-21T07:49:41;8.60;99.90
23744;DHT22;12052;53.478;10.182;2024-02-21T07:52:07;8.60;99.90
23744;DHT22;12052;53.478;10.182;2024-02-21T07:54:33;8.60;99.90
23744;DHT22;12052;53.478;10.182;2024-02-21T07:56:58;8.60;99.90
23744;DHT22;12052;53.478;10.182;2024-02-21T07:59:24;8.60;99.90
23744;DHT22;12052;53.478;10.182;2024-02-21T08:01:49;8.60;99.90
23744;DHT22;12052;53.478;10.182;2024-02-21T08:04:15;8.60;99.90
23744;DHT22;12052;53.478;10.182;2024-02-21T08:06:41;8.60;99.90
23744;DHT22;12052;53.478;10.182;2024-02-21T08:09:06;8.60;99.90
23744;DHT22;12052;53.478;10.182;2024-02-21T08:11:32;8.60;99.90
23744;DHT22;12052;53.478;10.182;2024-02-21T08:13:58;8.60;99.90
23744;DHT22;12052;53.478;10.182;2024-02-21T08:16:23;8.70;99.90
23744;DHT22;12052;53.478;10.182;2024-02-21T08:18:49;8.60;99.90
23744;DHT22;12052;53.478;10.182;2024-02-21T08:21:14;8.60;99.90
23744;DHT22;12052;53.478;10.182;2024-02-21T08:23:40;8.70;99.90
23744;DHT22;12052;53.478;10.182;2024-02-21T08:26:05;8.70;99.90
23744;DHT22;12052;53.478;10.182;2024-02-21T08:28:31;8.70;99.90
23744;DHT22;12052;53.478;10.182;2024-02-21T08:30:56;8.70;99.90
23744;DHT22;12052;53.478;10.182;2024-02-21T08:33:22;8.70;99.90
23744;DHT22;12052;53.478;10.182;2024-02-21T08:35:51;8.70;99.90
23744;DHT22;12052;53.478;10.182;2024-02-21T08:38:17;8.70;99.90
23744;DHT22;12052;53.478;10.182;2024-02-21T08:40:42;8.70;99.90
23744;DHT22;12052;53.478;10.182;2024-02-21T08:43:08;8.70;99.90
23744;DHT22;12052;53.478;10.182;2024-02-21T08:45:33;8.70;99.90
23744;DHT22;12052;53.478;10.182;2024-02-21T08:47:59;8.80;99.90
23744;DHT22;12052;53.478;10.182;2024-02-21T08:50:24;8.80;99.90
23744;DHT22;12052;53.478;10.182;2024-02-21T08:52:50;8.70;99.90
23744;DHT22;12052;53.478;10.182;2024-02-21T08:55:16;8.70;99.90
23744;DHT22;12052;53.478;10.182;2024-02-21T08:57:42;8.70;99.90
23744;DHT22;12052;53.478;10.182;2024-02-21T09:00:08;8.70;99.90
23744;DHT22;12052;53.478;10.182;2024-02-21T09:02:41;8.60;99.90
23744;DHT22;12052;53.478;10.182;2024-02-21T09:05:13;8.50;99.90
23744;DHT22;12052;53.478;10.182;2024-02-21T09:07:38;8.30;99.90
23744;DHT22;12052;53.478;10.182;2024-02-21T09:10:04;8.20;99.90
23744;DHT22;12052;53.478;10.182;2024-02-21T09:12:30;8.20;99.90
23744;DHT22;12052;53.478;10.182;2024-02-21T09:14:56;8.20;99.90
23744;DHT22;12052;53.478;10.182;2024-02-21T09:17:21;8.10;99.90
23744;DHT22;12052;53.478;10.182;2024-02-21T09:19:47;8.10;99.90
23744;DHT22;12052;53.478;10.182;2024-02-21T09:22:13;8.10;99.90
23744;DHT22;12052;53.478;10.182;2024-02-21T09:24:39;8.10;99.90
23744;DHT22;12052;53.478;10.182;2024-02-21T09:27:05;8.00;99.90
23744;DHT22;12052;53.478;10.182;2024-02-21T09:29:31;8.10;99.90
23744;DHT22;12052;53.478;10.182;2024-02-21T09:31:59;8.10;99.90
23744;DHT22;12052;53.478;10.182;2024-02-21T09:34:24;8.10;99.90
23744;DHT22;12052;53.478;10.182;2024-02-21T09:36:50;8.10;99.90
23744;DHT22;12052;53.478;10.182;2024-02-21T09:39:16;8.20;99.90
23744;DHT22;12052;53.478;10.182;2024-02-21T09:41:48;8.20;99.90
23744;DHT22;12052;53.478;10.182;2024-02-21T09:44:18;8.30;99.90
23744;DHT22;12052;53.478;10.182;2024-02-21T09:47:04;8.20;99.90
23744;DHT22;12052;53.478;10.182;2024-02-21T09:49:35;8.30;99.90
23744;DHT22;12052;53.478;10.182;2024-02-21T09:52:07;8.30;99.90
23744;DHT22;12052;53.478;10.182;2024-02-21T09:54:36;8.40;99.90
23744;DHT22;12052;53.478;10.182;2024-02-21T09:57:03;8.30;99.90
23744;DHT22;12052;53.478;10.182;2024-02-21T09:59:31;8.40;99.90
23744;DHT22;12052;53.478;10.182;2024-02-21T10:01:57;8.40;99.90
23744;DHT22;12052;53.478;10.182;2024-02-21T10:04:24;8.40;99.90
23744;DHT22;12052;53.478;10.182;2024-02-21T10:06:50;8.40;99.90
23744;DHT22;12052;53.478;10.182;2024-02-21T10:09:26;8.50;99.90
23744;DHT22;12052;53.478;10.182;2024-02-21T10:12:12;8.50;99.90
23744;DHT22;12052;53.478;10.182;2024-02-21T10:14:38;8.50;99.90
23744;DHT22;12052;53.478;10.182;2024-02-21T10:17:04;8.50;99.90
23744;DHT22;12052;53.478;10.182;2024-02-21T10:19:34;8.50;99.90
23744;DHT22;12052;53.478;10.182;2024-02-21T10:24:29;8.50;99.90
23744;DHT22;12052;53.478;10.182;2024-02-21T10:27:02;8.60;99.90
23744;DHT22;12052;53.478;10.182;2024-02-21T10:29:32;8.60;99.90
23744;DHT22;12052;53.478;10.182;2024-02-21T10:32:11;8.60;99.90
23744;DHT22;12052;53.478;10.182;2024-02-21T10:34:38;8.60;99.90
23744;DHT22;12052;53.478;10.182;2024-02-21T10:37:08;8.60;99.90
23744;DHT22;12052;53.478;10.182;2024-02-21T10:39:37;8.60;99.90
23744;DHT22;12052;53.478;10.182;2024-02-21T10:42:03;8.60;99.90
23744;DHT22;12052;53.478;10.182;2024-02-21T10:44:34;8.60;99.90
23744;DHT22;12052;53.478;10.182;2024-02-21T10:47:09;8.60;99.90
23744;DHT22;12052;53.478;10.182;2024-02-21T10:49:39;8.70;99.90
23744;DHT22;12052;53.478;10.182;2024-02-21T10:52:15;8.60;99.90
23744;DHT22;12052;53.478;10.182;2024-02-21T10:57:27;8.70;99.90
23744;DHT22;12052;53.478;10.182;2024-02-21T10:59:54;8.70;99.90
23744;DHT22;12052;53.478;10.182;2024-02-21T11:02:20;8.70;99.90
23744;DHT22;12052;53.478;10.182;2024-02-21T11:04:46;8.80;99.90
23744;DHT22;12052;53.478;10.182;2024-02-21T11:07:13;8.70;99.90
23744;DHT22;12052;53.478;10.182;2024-02-21T11:09:40;8.80;99.90
23744;DHT22;12052;53.478;10.182;2024-02-21T11:12:06;8.80;99.90
23744;DHT22;12052;53.478;10.182;2024-02-21T11:14:32;8.70;99.90
23744;DHT22;12052;53.478;10.182;2024-02-21T11:16:58;8.70;99.90
23744;DHT22;12052;53.478;10.182;2024-02-21T11:19:26;8.70;99.90
23744;DHT22;12052;53.478;10.182;2024-02-21T11:21:52;8.70;99.90
23744;DHT22;12052;53.478;10.182;2024-02-21T11:24:32;8.70;99.90
23744;DHT22;12052;53.478;10.182;2024-02-21T11:27:20;8.70;99.90
23744;DHT22;12052;53.478;10.182;2024-02-21T11:29:56;8.70;99.90
23744;DHT22;12052;53.478;10.182;2024-02-21T11:32:23;8.70;99.90
23744;DHT22;12052;53.478;10.182;2024-02-21T11:35:03;8.70;99.90
23744;DHT22;12052;53.478;10.182;2024-02-21T11:37:34;8.70;99.90
23744;DHT22;12052;53.478;10.182;2024-02-21T11:40:00;8.70;99.90
23744;DHT22;12052;53.478;10.182;2024-02-21T11:42:29;8.80;99.90
23744;DHT22;12052;53.478;10.182;2024-02-21T11:44:59;8.80;99.90
23744;DHT22;12052;53.478;10.182;2024-02-21T11:47:27;8.80;99.90
23744;DHT22;12052;53.478;10.182;2024-02-21T11:49:53;8.70;99.90
23744;DHT22;12052;53.478;10.182;2024-02-21T11:52:23;8.70;99.90
23744;DHT22;12052;53.478;10.182;2024-02-21T11:54:51;8.80;99.90
23744;DHT22;12052;53.478;10.182;2024-02-21T11:57:17;8.70;99.90
23744;DHT22;12052;53.478;10.182;2024-02-21T11:59:44;8.70;99.90
23744;DHT22;12052;53.478;10.182;2024-02-21T12:02:11;8.70;99.90
23744;DHT22;12052;53.478;10.182;2024-02-21T12:04:37;8.70;99.90
23744;DHT22;12052;53.478;10.182;2024-02-21T12:07:02;8.70;99.90
23744;DHT22;12052;53.478;10.182;2024-02-21T12:09:30;8.70;99.90
23744;DHT22;12052;53.478;10.182;2024-02-21T12:12:03;8.70;99.90
23744;DHT22;12052;53.478;10.182;2024-02-21T12:14:30;8.70;99.90
23744;DHT22;12052;53.478;10.182;2024-02-21T12:16:56;8.70;99.90
23744;DHT22;12052;53.478;10.182;2024-02-21T12:19:22;8.70;99.90
23744;DHT22;12052;53.478;10.182;2024-02-21T12:21:48;8.70;99.90
23744;DHT22;12052;53.478;10.182;2024-02-21T12:24:22;8.60;99.90
23744;DHT22;12052;53.478;10.182;2024-02-21T12:26:52;8.60;99.90
23744;DHT22;12052;53.478;10.182;2024-02-21T12:29:21;8.60;99.90
23744;DHT22;12052;53.478;10.182;2024-02-21T12:31:47;8.60;99.90
23744;DHT22;12052;53.478;10.182;2024-02-21T12:34:13;8.60;99.90
23744;DHT22;12052;53.478;10.182;2024-02-21T12:36:44;8.60;99.90
23744;DHT22;12052;53.478;10.182;2024-02-21T12:39:12;8.60;99.90
23744;DHT22;12052;53.478;10.182;2024-02-21T12:41:38;8.60;99.90
23744;DHT22;12052;53.478;10.182;2024-02-21T12:44:05;8.60;99.90
23744;DHT22;12052;53.478;10.182;2024-02-21T12:46:36;8.60;99.90
23744;DHT22;12052;53.478;10.182;2024-02-21T12:49:03;8.60;99.90
23744;DHT22;12052;53.478;10.182;2024-02-21T12:51:29;8.70;99.90
23744;DHT22;12052;53.478;10.182;2024-02-21T12:53:56;8.70;99.90
23744;DHT22;12052;53.478;10.182;2024-02-21T12:56:22;8.60;99.90
23744;DHT22;12052;53.478;10.182;2024-02-21T12:58:47;8.70;99.90
23744;DHT22;12052;53.478;10.182;2024-02-21T13:01:13;8.70;99.90
23744;DHT22;12052;53.478;10.182;2024-02-21T13:03:39;8.70;99.90
23744;DHT22;12052;53.478;10.182;2024-02-21T13:06:05;8.80;99.90
23744;DHT22;12052;53.478;10.182;2024-02-21T13:08:32;8.80;99.90
23744;DHT22;12052;53.478;10.182;2024-02-21T13:10:59;8.80;99.90
23744;DHT22;12052;53.478;10.182;2024-02-21T13:13:25;8.80;99.90
23744;DHT22;12052;53.478;10.182;2024-02-21T13:15:51;8.90;99.90
23744;DHT22;12052;53.478;10.182;2024-02-21T13:18:16;8.90;99.90
23744;DHT22;12052;53.478;10.182;2024-02-21T13:20:42;8.90;99.90
23744;DHT22;12052;53.478;10.182;2024-02-21T13:23:07;9.00;99.90
23744;DHT22;12052;53.478;10.182;2024-02-21T13:25:33;9.00;99.90
23744;DHT22;12052;53.478;10.182;2024-02-21T13:27:58;9.10;99.90
23744;DHT22;12052;53.478;10.182;2024-02-21T13:30:24;9.10;99.90
23744;DHT22;12052;53.478;10.182;2024-02-21T13:32:51;9.10;99.90
23744;DHT22;12052;53.478;10.182;2024-02-21T13:35:16;9.10;99.90
23744;DHT22;12052;53.478;10.182;2024-02-21T13:37:43;9.10;99.90
23744;DHT22;12052;53.478;10.182;2024-02-21T13:40:09;9.10;99.90
23744;DHT22;12052;53.478;10.182;2024-02-21T13:42:35;9.10;99.90
23744;DHT22;12052;53.478;10.182;2024-02-21T13:45:01;9.10;99.90
23744;DHT22;12052;53.478;10.182;2024-02-21T13:47:27;9.10;99.90
23744;DHT22;12052;53.478;10.182;2024-02-21T13:49:52;9.10;99.90
23744;DHT22;12052;53.478;10.182;2024-02-21T13:52:18;9.10;99.90
23744;DHT22;12052;53.478;10.182;2024-02-21T13:54:46;9.10;99.90
23744;DHT22;12052;53.478;10.182;2024-02-21T13:57:12;9.20;99.90
23744;DHT22;12052;53.478;10.182;2024-02-21T13:59:38;9.20;99.90
23744;DHT22;12052;53.478;10.182;2024-02-21T14:02:05;9.20;99.90
23744;DHT22;12052;53.478;10.182;2024-02-21T14:04:32;9.20;99.90
23744;DHT22;12052;53.478;10.182;2024-02-21T14:06:58;9.30;99.90
23744;DHT22;12052;53.478;10.182;2024-02-21T14:09:23;9.30;99.90
23744;DHT22;12052;53.478;10.182;2024-02-21T14:11:49;9.30;99.90
23744;DHT22;12052;53.478;10.182;2024-02-21T14:14:14;9.30;99.90
23744;DHT22;12052;53.478;10.182;2024-02-21T14:16:40;9.30;99.90
23744;DHT22;12052;53.478;10.182;2024-02-21T14:19:06;9.40;99.90
23744;DHT22;12052;53.478;10.182;2024-02-21T14:21:34;9.40;99.90
23744;DHT22;12052;53.478;10.182;2024-02-21T14:23:59;9.40;99.90
23744;DHT22;12052;53.478;10.182;2024-02-21T14:26:28;9.40;99.90
23744;DHT22;12052;53.478;10.182;2024-02-21T14:28:55;9.40;99.90
23744;DHT22;12052;53.478;10.182;2024-02-21T14:31:22;9.40;99.90
23744;DHT22;12052;53.478;10.182;2024-02-21T14:33:47;9.40;99.90
23744;DHT22;12052;53.478;10.182;2024-02-21T14:36:13;9.40;99.90
23744;DHT22;12052;53.478;10.182;2024-02-21T14:38:41;9.40;99.90
23744;DHT22;12052;53.478;10.182;2024-02-21T14:41:07;9.40;99.90
23744;DHT22;12052;53.478;10.182;2024-02-21T14:43:32;9.40;99.90
23744;DHT22;12052;53.478;10.182;2024-02-21T14:46:00;9.50;99.90
23744;DHT22;12052;53.478;10.182;2024-02-21T14:48:25;9.40;99.90
23744;DHT22;12052;53.478;10.182;2024-02-21T14:50:53;9.40;99.90
23744;DHT22;12052;53.478;10.182;2024-02-21T14:53:19;9.50;99.90
23744;DHT22;12052;53.478;10.182;2024-02-21T14:55:45;9.40;99.90
23744;DHT22;12052;53.478;10.182;2024-02-21T14:58:10;9.40;99.90
23744;DHT22;12052;53.478;10.182;2024-02-21T15:00:36;9.50;99.90
23744;DHT22;12052;53.478;10.182;2024-02-21T15:03:02;9.40;99.90
23744;DHT22;12052;53.478;10.182;2024-02-21T15:05:28;9.40;99.90
23744;DHT22;12052;53.478;10.182;2024-02-21T15:07:55;9.40;99.90
23744;DHT22;12052;53.478;10.182;2024-02-21T15:10:22;9.40;99.90
23744;DHT22;12052;53.478;10.182;2024-02-21T15:12:47;9.40;99.90
23744;DHT22;12052;53.478;10.182;2024-02-21T15:15:13;9.40;99.90
23744;DHT22;12052;53.478;10.182;2024-02-21T15:17:39;9.40;99.90
23744;DHT22;12052;53.478;10.182;2024-02-21T15:20:06;9.40;99.90
23744;DHT22;12052;53.478;10.182;2024-02-21T15:22:33;9.30;99.90
23744;DHT22;12052;53.478;10.182;2024-02-21T15:24:59;9.30;99.90
23744;DHT22;12052;53.478;10.182;2024-02-21T15:27:26;9.30;99.90
23744;DHT22;12052;53.478;10.182;2024-02-21T15:29:53;9.30;99.90
23744;DHT22;12052;53.478;10.182;2024-02-21T15:32:19;9.30;99.90